Time;durP1;ratioP1;P1;durP2;ratioP2;P2;SDS_P1;SDS_P2;PMS_P1;PMS_P2;Temp;Humidity;BMP_temperature;BMP_pressure;BME280_temperature;BME280_humidity;BME280_pressure;Samples;Min_cycle;Max_cycle;Signal;HPM_P1;HPM_P2
2023/01/03 00:00:10;;;;;;;1999.90;999.90;;;7.80;99.90;;;;;;5050536;28;20938;-69
2023/01/03 00:02:36;;;;;;;1999.90;999.90;;;7.80;99.90;;;;;;5062326;28;20120;-69
2023/01/03 00:05:02;;;;;;;1999.90;999.90;;;7.80;99.90;;;;;;5042422;28;20116;-69
2023/01/03 00:07:33;;;;;;;1999.90;999.90;;;7.80;99.90;;;;;;5046303;28;20041;-69
2023/01/03 00:10:09;;;;;;;1999.90;999.90;;;7.70;99.90;;;;;;5056739;28;20669;-69
2023/01/03 00:12:36;;;;;;;1999.90;999.90;;;7.80;99.90;;;;;;5057975;28;20056;-68
2023/01/03 00:15:02;;;;;;;1999.90;999.90;;;7.80;99.90;;;;;;5056350;28;20028;-70
2023/01/03 00:17:28;;;;;;;1999.90;999.90;;;7.70;99.90;;;;;;5062467;28;20047;-70
2023/01/03 00:19:54;;;;;;;1999.90;999.90;;;7.80;99.90;;;;;;5067810;28;20032;-69
2023/01/03 00:22:20;;;;;;;1999.90;999.90;;;7.80;99.90;;;;;;5060581;28;20487;-69
2023/01/03 00:24:47;;;;;;;1999.90;999.90;;;7.80;99.90;;;;;;5055066;28;20051;-69
2023/01/03 00:27:14;;;;;;;1999.90;999.90;;;7.70;99.90;;;;;;5061742;28;20036;-69
2023/01/03 00:29:40;;;;;;;1999.90;999.90;;;7.80;99.90;;;;;;5063835;28;20123;-69
2023/01/03 00:32:05;;;;;;;1999.90;999.90;;;7.70;99.90;;;;;;5061157;28;20593;-69
2023/01/03 00:34:32;;;;;;;1999.90;999.90;;;7.80;99.90;;;;;;5060665;28;20028;-70
2023/01/03 00:36:57;;;;;;;1999.90;999.90;;;7.70;99.90;;;;;;5060961;28;20112;-69
2023/01/03 00:39:24;;;;;;;1999.90;999.90;;;7.60;99.90;;;;;;5061921;28;20218;-68
2023/01/03 00:41:50;;;;;;;1999.90;999.90;;;7.70;99.90;;;;;;5044244;28;20053;-69
2023/01/03 00:44:16;;;;;;;1999.90;999.90;;;7.60;99.90;;;;;;5062566;28;20137;-69
2023/01/03 00:46:42;;;;;;;1999.90;999.90;;;7.80;99.90;;;;;;5063429;28;20500;-69
2023/01/03 00:49:08;;;;;;;1999.90;999.90;;;7.70;99.90;;;;;;5057450;28;20118;-69
2023/01/03 00:51:36;;;;;;;1999.90;999.90;;;7.70;99.90;;;;;;5061205;28;20060;-69
2023/01/03 00:54:03;;;;;;;1999.90;999.90;;;7.80;99.90;;;;;;5067623;28;20044;-69
2023/01/03 00:56:37;;;;;;;1999.90;999.90;;;7.70;99.90;;;;;;5055680;28;20037;-68
2023/01/03 00:59:03;;;;;;;1999.90;999.90;;;8.70;99.90;;;;;;5063269;28;20036;-69
2023/01/03 01:01:41;;;;;;;1999.90;999.90;;;8.60;99.90;;;;;;5059190;28;20025;-69
2023/01/03 01:04:09;;;;;;;1999.90;999.90;;;8.50;99.90;;;;;;5060165;28;20508;-68
2023/01/03 01:06:39;;;;;;;1999.90;999.90;;;8.40;99.90;;;;;;5062143;28;20475;-69
2023/01/03 01:09:06;;;;;;;1999.90;999.90;;;8.40;99.90;;;;;;5059673;28;20039;-68
2023/01/03 01:11:33;;;;;;;1999.90;999.90;;;8.40;99.90;;;;;;5064045;28;20059;-68
2023/01/03 01:13:58;;;;;;;1999.90;999.90;;;8.50;99.90;;;;;;5060718;28;20036;-69
2023/01/03 01:16:30;;;;;;;1999.90;999.90;;;8.50;99.90;;;;;;5055731;28;20502;-69
2023/01/03 01:18:58;;;;;;;1999.90;999.90;;;8.50;99.90;;;;;;5060635;28;20466;-69
2023/01/03 01:21:27;;;;;;;1999.90;999.90;;;8.50;99.90;;;;;;5053718;28;20024;-69
2023/01/03 01:23:53;;;;;;;1999.90;999.90;;;8.50;99.90;;;;;;5055791;28;20036;-69
2023/01/03 01:26:22;;;;;;;1999.90;999.90;;;8.50;99.90;;;;;;5067741;28;20040;-68
2023/01/03 01:28:51;;;;;;;1999.90;999.90;;;8.40;99.90;;;;;;5060618;28;20037;-68
2023/01/03 01:31:19;;;;;;;1999.90;999.90;;;8.40;99.90;;;;;;5069242;28;20033;-68
2023/01/03 01:33:45;;;;;;;1999.90;999.90;;;8.50;99.90;;;;;;5068300;28;20037;-68
2023/01/03 01:36:18;;;;;;;1999.90;999.90;;;8.50;99.90;;;;;;5062224;28;20044;-68
2023/01/03 01:38:46;;;;;;;1999.90;999.90;;;8.50;99.90;;;;;;5062327;28;20448;-68
2023/01/03 01:44:36;;;;;;;1999.90;999.90;;;8.50;99.90;;;;;;5064453;28;20043;-69
2023/01/03 01:46:47;;;;;;;1999.90;999.90;;;8.50;99.90;;;;;;5055077;28;20078;-68
2023/01/03 01:49:20;;;;;;;1999.90;999.90;;;8.40;99.90;;;;;;5057531;28;20028;-69
2023/01/03 01:51:46;;;;;;;1999.90;999.90;;;8.30;99.90;;;;;;5058435;28;20545;-68
2023/01/03 01:54:12;;;;;;;1999.90;999.90;;;8.50;99.90;;;;;;5060446;28;20029;-68
2023/01/03 01:56:49;;;;;;;1999.90;999.90;;;8.40;99.90;;;;;;5064118;28;20033;-68
2023/01/03 01:59:15;;;;;;;1999.90;999.90;;;8.30;99.90;;;;;;5062943;28;20021;-69
2023/01/03 02:01:43;;;;;;;1999.90;999.90;;;8.40;99.90;;;;;;5059682;28;20037;-68
2023/01/03 02:04:23;;;;;;;1999.90;999.90;;;8.30;99.90;;;;;;5059700;28;20024;-68
2023/01/03 02:06:49;;;;;;;1999.90;999.90;;;8.20;99.90;;;;;;5067074;28;20032;-69
2023/01/03 02:09:15;;;;;;;1999.90;999.90;;;8.30;99.90;;;;;;5064884;28;20553;-69
2023/01/03 02:15:12;;;;;;;1999.90;999.90;;;8.20;99.90;;;;;;5053279;28;20086;-69
2023/01/03 02:18:15;;;;;;;1999.90;999.90;;;8.20;99.90;;;;;;5057481;28;20404;-69
2023/01/03 02:20:52;;;;;;;1999.90;999.90;;;8.20;99.90;;;;;;5051615;28;20034;-69
2023/01/03 02:23:46;;;;;;;1999.90;999.90;;;8.30;99.90;;;;;;5066116;28;20060;-69
2023/01/03 02:26:32;;;;;;;1999.90;999.90;;;8.30;99.90;;;;;;5060589;28;20096;-69
2023/01/03 02:29:31;;;;;;;1999.90;999.90;;;8.30;99.90;;;;;;5058439;28;20052;-69
2023/01/03 02:32:02;;;;;;;1999.90;999.90;;;8.20;99.90;;;;;;5057995;28;20074;-69
2023/01/03 02:34:43;;;;;;;1999.90;999.90;;;8.20;99.90;;;;;;5057592;28;20115;-68
2023/01/03 02:37:42;;;;;;;1999.90;999.90;;;8.30;99.90;;;;;;5063218;28;20461;-69
2023/01/03 02:40:10;;;;;;;1999.90;999.90;;;8.30;99.90;;;;;;5056139;28;20487;-69
2023/01/03 02:42:57;;;;;;;1999.90;999.90;;;8.20;99.90;;;;;;5060211;28;20509;-69
2023/01/03 02:46:00;;;;;;;1999.90;999.90;;;8.20;99.90;;;;;;5055518;28;20037;-69
2023/01/03 02:49:02;;;;;;;1999.90;999.90;;;8.20;99.90;;;;;;5054346;28;20056;-69
2023/01/03 02:51:40;;;;;;;1999.90;999.90;;;8.20;99.90;;;;;;5052872;28;20033;-69
2023/01/03 02:54:09;;;;;;;1999.90;999.90;;;8.10;99.90;;;;;;5053276;28;20024;-69
2023/01/03 02:56:40;;;;;;;1999.90;999.90;;;8.20;99.90;;;;;;5051096;28;20506;-69
2023/01/03 02:59:13;;;;;;;1999.90;999.90;;;8.10;99.90;;;;;;5065916;28;20131;-69
2023/01/03 03:01:44;;;;;;;1999.90;999.90;;;8.00;99.90;;;;;;5064169;28;20040;-69
2023/01/03 03:04:14;;;;;;;1999.90;999.90;;;8.10;99.90;;;;;;5058757;28;20314;-68
2023/01/03 03:06:56;;;;;;;1999.90;999.90;;;8.20;99.90;;;;;;5051976;28;20086;-69
2023/01/03 03:09:22;;;;;;;1999.90;999.90;;;8.20;99.90;;;;;;5060541;28;20367;-68
2023/01/03 03:14:38;;;;;;;1999.90;999.90;;;8.20;99.90;;;;;;5062026;28;20628;-69
2023/01/03 03:17:07;;;;;;;1999.90;999.90;;;8.20;99.90;;;;;;5067428;28;20486;-68
2023/01/03 03:25:21;;;;;;;1999.90;999.90;;;8.20;99.90;;;;;;5053766;28;20307;-70
2023/01/03 03:30:40;;;;;;;1999.90;999.90;;;8.00;99.90;;;;;;5057845;28;20435;-70
2023/01/03 03:33:07;;;;;;;1999.90;999.90;;;8.10;99.90;;;;;;5053868;28;20021;-69
2023/01/03 03:35:44;;;;;;;1999.90;999.90;;;8.00;99.90;;;;;;5057756;28;20056;-69
2023/01/03 03:38:13;;;;;;;1999.90;999.90;;;8.00;99.90;;;;;;5057310;28;20028;-69
2023/01/03 03:46:32;;;;;;;1999.90;999.90;;;8.00;99.90;;;;;;5055242;28;20094;-68
2023/01/03 03:51:53;;;;;;;1999.90;999.90;;;8.10;99.90;;;;;;5059633;28;20115;-68
2023/01/03 03:54:21;;;;;;;1999.90;999.90;;;8.10;99.90;;;;;;5059648;28;20491;-68
2023/01/03 03:56:54;;;;;;;1999.90;999.90;;;8.10;99.90;;;;;;5068786;28;20206;-68
2023/01/03 03:59:22;;;;;;;1999.90;999.90;;;8.00;99.90;;;;;;5069008;28;20024;-68
2023/01/03 04:01:49;;;;;;;1999.90;999.90;;;7.90;99.90;;;;;;5059120;28;20032;-67
2023/01/03 04:04:26;;;;;;;1999.90;999.90;;;7.80;99.90;;;;;;5067607;28;20020;-70
2023/01/03 04:06:52;;;;;;;1999.90;999.90;;;7.80;99.90;;;;;;5062144;28;20505;-69
2023/01/03 04:09:18;;;;;;;1999.90;999.90;;;7.80;99.90;;;;;;5072912;28;20033;-69
2023/01/03 04:11:43;;;;;;;1999.90;999.90;;;7.90;99.90;;;;;;5053384;28;20471;-68
2023/01/03 04:14:10;;;;;;;1999.90;999.90;;;8.10;99.90;;;;;;5060266;28;20044;-69
2023/01/03 04:16:36;;;;;;;1999.90;999.90;;;7.90;99.90;;;;;;5059713;28;20086;-69
2023/01/03 04:19:03;;;;;;;1999.90;999.90;;;7.90;99.90;;;;;;5058349;28;20040;-69
2023/01/03 04:21:28;;;;;;;1999.90;999.90;;;7.90;99.90;;;;;;5061431;28;20028;-69
2023/01/03 04:23:54;;;;;;;1999.90;999.90;;;7.80;99.90;;;;;;5054327;28;20502;-68
2023/01/03 04:26:20;;;;;;;1999.90;999.90;;;7.80;99.90;;;;;;5064506;28;20094;-69
2023/01/03 04:28:46;;;;;;;1999.90;999.90;;;8.00;99.90;;;;;;5052578;28;20045;-69
2023/01/03 04:31:11;;;;;;;1999.90;999.90;;;8.00;99.90;;;;;;5055388;28;20041;-69
2023/01/03 04:33:37;;;;;;;1999.90;999.90;;;7.90;99.90;;;;;;5057939;28;20535;-68
2023/01/03 04:36:03;;;;;;;1999.90;999.90;;;7.80;99.90;;;;;;5064025;28;20115;-68
2023/01/03 04:38:28;;;;;;;1999.90;999.90;;;7.80;99.90;;;;;;5054524;28;20035;-69
2023/01/03 04:40:54;;;;;;;1999.90;999.90;;;7.80;99.90;;;;;;5060046;28;20029;-69
2023/01/03 04:46:04;;;;;;;1999.90;999.90;;;7.80;99.90;;;;;;5050598;28;20502;-68
2023/01/03 04:48:30;;;;;;;1999.90;999.90;;;7.60;99.90;;;;;;5060089;28;20119;-68
2023/01/03 04:50:57;;;;;;;1999.90;999.90;;;7.70;99.90;;;;;;5054319;28;20582;-69
2023/01/03 04:53:25;;;;;;;1999.90;999.90;;;7.80;99.90;;;;;;5051511;28;20124;-69
2023/01/03 04:55:52;;;;;;;1999.90;999.90;;;7.80;99.90;;;;;;5065193;28;20021;-69
2023/01/03 04:58:19;;;;;;;1999.90;999.90;;;7.90;99.90;;;;;;5055773;28;20033;-69
2023/01/03 05:00:45;;;;;;;1999.90;999.90;;;7.60;99.90;;;;;;5064102;28;20679;-69
2023/01/03 05:03:10;;;;;;;1999.90;999.90;;;7.60;99.90;;;;;;5054321;28;20025;-69
2023/01/03 05:05:37;;;;;;;1999.90;999.90;;;7.60;99.90;;;;;;5061084;28;20071;-69
2023/01/03 05:08:08;;;;;;;1999.90;999.90;;;7.60;99.90;;;;;;5068950;28;20028;-69
2023/01/03 05:10:36;;;;;;;1999.90;999.90;;;7.60;99.90;;;;;;5059732;28;20413;-69
2023/01/03 05:13:02;;;;;;;1999.90;999.90;;;7.60;99.90;;;;;;5066411;28;20036;-68
2023/01/03 05:15:29;;;;;;;1999.90;999.90;;;7.60;99.90;;;;;;5055497;28;20033;-68
2023/01/03 05:17:55;;;;;;;1999.90;999.90;;;7.50;99.90;;;;;;5059493;28;20031;-68
2023/01/03 05:25:55;;;;;;;1999.90;999.90;;;7.60;99.90;;;;;;5066030;28;20047;-69
2023/01/03 05:28:22;;;;;;;1999.90;999.90;;;7.60;99.90;;;;;;5059263;28;20037;-69
2023/01/03 05:30:48;;;;;;;1999.90;999.90;;;7.50;99.90;;;;;;5060064;28;20044;-70
2023/01/03 05:33:13;;;;;;;1999.90;999.90;;;7.40;99.90;;;;;;5047663;28;20071;-69
2023/01/03 05:35:39;;;;;;;1999.90;999.90;;;7.40;99.90;;;;;;5066316;28;20020;-69
2023/01/03 05:38:05;;;;;;;1999.90;999.90;;;7.40;99.90;;;;;;5054785;28;20032;-69
2023/01/03 05:40:30;;;;;;;1999.90;999.90;;;7.20;99.90;;;;;;5061109;28;20124;-69
2023/01/03 05:42:56;;;;;;;1999.90;999.90;;;7.20;99.90;;;;;;5055916;28;20083;-70
2023/01/03 05:45:24;;;;;;;1999.90;999.90;;;7.40;99.90;;;;;;5058226;28;20098;-69
2023/01/03 05:47:51;;;;;;;1999.90;999.90;;;7.40;99.90;;;;;;5061338;28;20043;-69
2023/01/03 05:50:17;;;;;;;1999.90;999.90;;;7.50;99.90;;;;;;5063433;28;20032;-69
2023/01/03 05:52:42;;;;;;;1999.90;999.90;;;7.50;99.90;;;;;;5053457;28;20533;-69
2023/01/03 05:55:09;;;;;;;1999.90;999.90;;;7.60;99.90;;;;;;5054893;28;20037;-69
2023/01/03 05:57:34;;;;;;;1999.90;999.90;;;7.50;99.90;;;;;;5061576;28;20032;-69
2023/01/03 06:00:00;;;;;;;1999.90;999.90;;;7.50;99.90;;;;;;5063624;28;20021;-69
2023/01/03 06:02:27;;;;;;;1999.90;999.90;;;7.50;99.90;;;;;;5057415;28;20155;-69
2023/01/03 06:04:53;;;;;;;1999.90;999.90;;;7.40;99.90;;;;;;5059063;28;20097;-69
2023/01/03 06:07:18;;;;;;;1999.90;999.90;;;7.50;99.90;;;;;;5061815;28;20059;-69
2023/01/03 06:09:44;;;;;;;1999.90;999.90;;;7.40;99.90;;;;;;5059020;28;20037;-68
2023/01/03 06:12:10;;;;;;;1999.90;999.90;;;7.40;99.90;;;;;;5062999;28;20679;-68
2023/01/03 06:14:35;;;;;;;1999.90;999.90;;;7.20;99.90;;;;;;5060079;28;20060;-68
2023/01/03 06:19:45;;;;;;;1999.90;999.90;;;7.10;99.90;;;;;;5060396;28;20090;-68
2023/01/03 06:22:11;;;;;;;1999.90;999.90;;;7.20;99.90;;;;;;5056875;28;20036;-69
2023/01/03 06:24:36;;;;;;;1999.90;999.90;;;7.20;99.90;;;;;;5056853;28;20743;-69
2023/01/03 06:27:02;;;;;;;1999.90;999.90;;;7.30;99.90;;;;;;5060609;28;20059;-70
2023/01/03 06:29:27;;;;;;;1999.90;999.90;;;7.30;99.90;;;;;;5053960;28;20144;-68
2023/01/03 06:31:53;;;;;;;1999.90;999.90;;;7.30;99.90;;;;;;5060545;28;20731;-68
2023/01/03 06:34:19;;;;;;;1999.90;999.90;;;7.30;99.90;;;;;;5067392;28;20028;-69
2023/01/03 06:36:44;;;;;;;1999.90;999.90;;;7.40;99.90;;;;;;5048048;28;20029;-68
2023/01/03 06:39:10;;;;;;;1999.90;999.90;;;7.50;99.90;;;;;;5062641;28;20029;-68
2023/01/03 06:41:36;;;;;;;1999.90;999.90;;;7.40;99.90;;;;;;5062867;28;20028;-69
2023/01/03 06:44:01;;;;;;;1999.90;999.90;;;7.20;99.90;;;;;;5058928;28;20458;-68
2023/01/03 06:54:52;;;;;;;1999.90;999.90;;;7.10;99.90;;;;;;5057395;28;20547;-68
2023/01/03 06:57:18;;;;;;;1999.90;999.90;;;7.10;99.90;;;;;;5063245;28;20037;-68
2023/01/03 06:59:44;;;;;;;1999.90;999.90;;;7.00;99.90;;;;;;5059188;28;20077;-68
2023/01/03 07:02:09;;;;;;;1999.90;999.90;;;6.80;99.90;;;;;;5057602;28;20395;-68
2023/01/03 07:04:35;;;;;;;1999.90;999.90;;;6.90;99.90;;;;;;5055245;28;20048;-68
2023/01/03 07:07:00;;;;;;;1999.90;999.90;;;7.00;99.90;;;;;;5057918;28;20039;-68
2023/01/03 07:09:26;;;;;;;1999.90;999.90;;;7.00;99.90;;;;;;5058812;28;20047;-68
2023/01/03 07:11:52;;;;;;;1999.90;999.90;;;7.10;99.90;;;;;;5064001;28;20033;-69
2023/01/03 07:14:18;;;;;;;1999.90;999.90;;;7.20;99.90;;;;;;5058473;28;20066;-68
2023/01/03 07:16:46;;;;;;;1999.90;999.90;;;7.20;99.90;;;;;;5061896;28;20043;-69
2023/01/03 07:19:15;;;;;;;1999.90;999.90;;;7.20;99.90;;;;;;5055199;28;20115;-68
2023/01/03 07:21:41;;;;;;;1999.90;999.90;;;7.30;99.90;;;;;;5060578;28;20031;-69
2023/01/03 07:24:09;;;;;;;1999.90;999.90;;;7.30;99.90;;;;;;5060838;28;20052;-69
2023/01/03 07:26:35;;;;;;;1999.90;999.90;;;7.30;99.90;;;;;;5064863;28;20097;-71
2023/01/03 07:29:06;;;;;;;1999.90;999.90;;;7.20;99.90;;;;;;5059632;28;20895;-70
2023/01/03 07:31:32;;;;;;;1999.90;999.90;;;7.10;99.90;;;;;;5056655;28;20082;-71
2023/01/03 07:33:58;;;;;;;1999.90;999.90;;;6.90;99.90;;;;;;5052754;28;20025;-72
2023/01/03 07:36:24;;;;;;;1999.90;999.90;;;7.00;99.90;;;;;;5055177;28;20426;-69
2023/01/03 07:38:50;;;;;;;1999.90;999.90;;;7.10;99.90;;;;;;5055889;28;20070;-68
2023/01/03 07:41:16;;;;;;;1999.90;999.90;;;7.20;99.90;;;;;;5058796;28;20037;-69
2023/01/03 07:43:45;;;;;;;1999.90;999.90;;;7.20;99.90;;;;;;5059450;28;20032;-68
2023/01/03 07:46:29;;;;;;;1999.90;999.90;;;7.00;99.90;;;;;;5056453;28;20036;-68
2023/01/03 07:48:57;;;;;;;1999.90;999.90;;;6.90;99.90;;;;;;5059468;28;20055;-69
2023/01/03 07:51:23;;;;;;;1999.90;999.90;;;6.90;99.90;;;;;;5045188;28;20571;-68
2023/01/03 07:53:50;;;;;;;1999.90;999.90;;;6.90;99.90;;;;;;5057006;28;20056;-69
2023/01/03 07:56:18;;;;;;;1999.90;999.90;;;6.80;99.90;;;;;;5060113;28;20051;-69
2023/01/03 07:58:45;;;;;;;1999.90;999.90;;;7.00;99.90;;;;;;5057055;28;20090;-68
2023/01/03 08:01:16;;;;;;;1999.90;999.90;;;7.00;99.90;;;;;;5054681;28;20070;-68
2023/01/03 08:03:42;;;;;;;1999.90;999.90;;;7.00;99.90;;;;;;5057929;28;20044;-70
2023/01/03 08:06:13;;;;;;;1999.90;999.90;;;7.00;99.90;;;;;;5057933;28;20063;-70
2023/01/03 08:08:39;;;;;;;1999.90;999.90;;;7.00;99.90;;;;;;5051615;28;20115;-70
2023/01/03 08:13:50;;;;;;;1999.90;999.90;;;7.20;99.90;;;;;;5058163;28;20052;-70
2023/01/03 08:16:17;;;;;;;1999.90;999.90;;;7.20;99.90;;;;;;5054186;28;20510;-70
2023/01/03 08:18:44;;;;;;;1999.90;999.90;;;7.10;99.90;;;;;;5056014;28;20032;-71
2023/01/03 08:21:12;;;;;;;1999.90;999.90;;;7.10;99.90;;;;;;5056282;28;20024;-69
2023/01/03 08:23:39;;;;;;;1999.90;999.90;;;7.00;99.90;;;;;;5053707;28;20059;-69
2023/01/03 08:26:11;;;;;;;1999.90;999.90;;;6.90;99.90;;;;;;5055117;28;20443;-69
2023/01/03 08:28:38;;;;;;;1999.90;999.90;;;6.90;99.90;;;;;;5073013;28;20548;-70
2023/01/03 08:31:25;;;;;;;1999.90;999.90;;;7.00;99.90;;;;;;5058262;28;20055;-69
2023/01/03 08:34:03;;;;;;;1999.90;999.90;;;7.00;99.90;;;;;;5059988;28;20045;-71
2023/01/03 08:36:34;;;;;;;1999.90;999.90;;;6.90;99.90;;;;;;5057881;28;20039;-69
2023/01/03 08:39:05;;;;;;;1999.90;999.90;;;6.90;99.90;;;;;;5058067;28;20028;-69
2023/01/03 08:41:34;;;;;;;1999.90;999.90;;;6.90;99.90;;;;;;5063581;28;20035;-69
2023/01/03 08:44:02;;;;;;;1999.90;999.90;;;6.90;99.90;;;;;;5061678;28;20067;-70
2023/01/03 08:46:29;;;;;;;1999.90;999.90;;;7.00;99.90;;;;;;5058111;28;20076;-70
2023/01/03 08:48:55;;;;;;;1999.90;999.90;;;6.90;99.90;;;;;;5061741;28;20124;-69
2023/01/03 08:51:23;;;;;;;1999.90;999.90;;;7.00;99.90;;;;;;5059720;28;21303;-69
2023/01/03 08:53:49;;;;;;;1999.90;999.90;;;7.10;99.90;;;;;;5061390;28;20043;-69
2023/01/03 08:56:17;;;;;;;1999.90;999.90;;;7.20;99.90;;;;;;5060342;28;20040;-69
2023/01/03 08:58:42;;;;;;;1999.90;999.90;;;7.30;99.90;;;;;;5062332;28;20029;-69
2023/01/03 09:01:10;;;;;;;1999.90;999.90;;;7.40;99.90;;;;;;5052481;28;20078;-69
2023/01/03 09:03:36;;;;;;;1999.90;999.90;;;7.60;99.90;;;;;;5079459;28;20372;-69
2023/01/03 09:06:03;;;;;;;1999.90;999.90;;;7.70;99.90;;;;;;5061009;28;20486;-69
2023/01/03 09:08:32;;;;;;;1999.90;999.90;;;7.80;99.90;;;;;;5056870;28;20062;-69
2023/01/03 09:11:02;;;;;;;1999.90;999.90;;;7.90;99.90;;;;;;5057144;28;20035;-69
2023/01/03 09:13:28;;;;;;;1999.90;999.90;;;7.90;99.90;;;;;;5057823;28;20040;-69
2023/01/03 09:16:03;;;;;;;1999.90;999.90;;;8.20;99.90;;;;;;5057457;28;20028;-70
2023/01/03 09:18:28;;;;;;;1999.90;999.90;;;8.40;99.90;;;;;;5060809;28;20028;-69
2023/01/03 09:20:54;;;;;;;1999.90;999.90;;;8.50;99.90;;;;;;5049916;28;20087;-70
2023/01/03 09:23:20;;;;;;;1999.90;999.90;;;8.40;99.90;;;;;;5064041;28;20670;-70
2023/01/03 09:25:46;;;;;;;1999.90;999.90;;;8.40;99.90;;;;;;5056689;28;20402;-69
2023/01/03 09:28:12;;;;;;;1999.90;999.90;;;8.40;99.90;;;;;;5052395;28;20433;-70
2023/01/03 09:30:38;;;;;;;1999.90;999.90;;;8.50;99.90;;;;;;5055457;28;20037;-69
2023/01/03 09:33:04;;;;;;;1999.90;999.90;;;8.40;99.90;;;;;;5060882;28;20025;-69
2023/01/03 09:35:30;;;;;;;1999.90;999.90;;;8.40;99.90;;;;;;5056663;28;20029;-70
2023/01/03 09:37:56;;;;;;;1999.90;999.90;;;8.40;99.90;;;;;;5063726;28;20052;-69
2023/01/03 09:40:22;;;;;;;1999.90;999.90;;;8.30;99.90;;;;;;5063095;28;20068;-69
2023/01/03 09:45:35;;;;;;;1999.90;999.90;;;8.20;99.90;;;;;;5054409;28;20116;-70
2023/01/03 09:48:03;;;;;;;1999.90;999.90;;;8.10;99.90;;;;;;5063959;28;20032;-70
2023/01/03 09:50:32;;;;;;;1999.90;999.90;;;8.10;99.90;;;;;;5064854;28;20379;-69
2023/01/03 10:04:41;;;;;;;1999.90;999.90;;;8.60;99.90;;;;;;5058501;28;20044;-69
2023/01/03 10:07:44;;;;;;;1999.90;999.90;;;8.40;99.90;;;;;;5059667;28;20072;-72
2023/01/03 10:10:28;;;;;;;1999.90;999.90;;;8.20;99.90;;;;;;5060817;28;20029;-69
2023/01/03 10:13:16;;;;;;;1999.90;999.90;;;8.20;99.90;;;;;;5060709;28;20033;-69
2023/01/03 10:15:50;;;;;;;1999.90;999.90;;;8.50;99.90;;;;;;5056738;28;20108;-69
2023/01/03 10:18:37;;;;;;;1999.90;999.90;;;8.80;99.90;;;;;;5054270;28;20064;-68
2023/01/03 10:21:27;;;;;;;1999.90;999.90;;;8.80;99.90;;;;;;5059746;28;20447;-69
2023/01/03 10:23:54;;;;;;;1999.90;999.90;;;8.70;99.90;;;;;;5056530;28;20299;-69
2023/01/03 10:26:22;;;;;;;1999.90;999.90;;;8.70;99.90;;;;;;5042779;28;20376;-69
2023/01/03 10:28:48;;;;;;;1999.90;999.90;;;8.30;99.90;;;;;;5056101;28;20059;-69
2023/01/03 10:31:52;;;;;;;1999.90;999.90;;;8.50;99.90;;;;;;5054197;28;20041;-69
2023/01/03 10:34:18;;;;;;;1999.90;999.90;;;8.70;99.90;;;;;;5055018;28;20068;-69
2023/01/03 10:36:44;;;;;;;1999.90;999.90;;;8.80;99.90;;;;;;5054220;28;20525;-68
2023/01/03 10:39:10;;;;;;;1999.90;999.90;;;8.90;99.90;;;;;;5056961;28;20041;-69
2023/01/03 10:41:42;;;;;;;1999.90;999.90;;;9.10;99.90;;;;;;5057061;28;20032;-68
2023/01/03 10:44:27;;;;;;;1559.15;999.90;;;9.20;99.90;;;;;;5055757;28;20111;-68
2023/01/03 10:46:55;;;;;;;1999.90;999.90;;;8.70;99.90;;;;;;5058204;28;20029;-68
2023/01/03 10:49:24;;;;;;;1999.90;999.90;;;8.60;99.90;;;;;;5061809;28;20029;-68
2023/01/03 10:51:57;;;;;;;1999.90;999.90;;;8.60;99.90;;;;;;5057072;28;20116;-68
2023/01/03 10:54:41;;;;;;;1999.90;999.90;;;8.70;99.90;;;;;;5055333;28;20056;-68
2023/01/03 10:57:06;;;;;;;1999.90;999.90;;;8.90;99.90;;;;;;5057238;28;20033;-68
2023/01/03 10:59:33;;;;;;;1999.90;999.90;;;9.00;99.90;;;;;;5060816;28;20033;-69
2023/01/03 11:01:59;;;;;;;1999.90;999.90;;;9.00;99.90;;;;;;5058077;28;20125;-69
2023/01/03 11:04:25;;;;;;;1999.90;999.90;;;9.00;99.90;;;;;;5056848;28;20031;-70
2023/01/03 11:07:24;;;;;;;1999.90;999.90;;;9.10;99.90;;;;;;5056287;28;20617;-69
2023/01/03 11:09:55;;;;;;;1623.88;954.03;;;9.30;99.90;;;;;;5036428;28;20135;-69
2023/01/03 11:12:37;;;;;;;1999.90;999.90;;;9.10;99.90;;;;;;5057918;28;20032;-69
2023/01/03 11:15:31;;;;;;;1195.28;999.90;;;8.80;99.90;;;;;;5056141;28;20029;-69
2023/01/03 11:18:02;;;;;;;1999.90;999.90;;;8.80;99.90;;;;;;5062031;28;20048;-69
2023/01/03 11:20:59;;;;;;;1188.22;999.90;;;8.80;99.90;;;;;;5055947;28;20382;-69
2023/01/03 11:23:42;;;;;;;1999.90;999.90;;;8.70;99.90;;;;;;5055714;28;20032;-69
2023/01/03 11:26:20;;;;;;;1999.90;999.90;;;8.90;99.90;;;;;;5058865;28;20431;-69
2023/01/03 11:29:00;;;;;;;1375.38;992.10;;;8.90;99.90;;;;;;5057901;28;21487;-73
2023/01/03 11:31:55;;;;;;;1221.57;999.90;;;8.90;99.90;;;;;;5055811;28;20056;-69
2023/01/03 11:34:26;;;;;;;1225.97;999.90;;;8.90;99.90;;;;;;5063575;28;20071;-69
2023/01/03 11:37:14;;;;;;;1217.55;999.90;;;8.80;99.90;;;;;;5056577;28;20029;-69
2023/01/03 11:39:52;;;;;;;1214.80;999.90;;;8.70;99.90;;;;;;5052763;28;20049;-68
2023/01/03 11:42:48;;;;;;;1387.43;999.90;;;8.70;99.90;;;;;;5052680;28;20032;-69
2023/01/03 11:45:41;;;;;;;1078.35;984.38;;;8.70;99.90;;;;;;5051820;28;20037;-69
2023/01/03 11:48:45;;;;;;;1113.38;999.45;;;8.60;99.90;;;;;;5050939;28;20036;-69
2023/01/03 11:51:30;;;;;;;1121.43;998.63;;;8.40;99.90;;;;;;5050462;28;20318;-69
2023/01/03 11:54:07;;;;;;;1999.90;999.90;;;8.70;99.90;;;;;;5050421;28;20769;-69
2023/01/03 11:56:37;;;;;;;1999.90;999.90;;;9.00;99.90;;;;;;5070551;28;20024;-69
2023/01/03 11:59:12;;;;;;;1301.38;999.90;;;9.20;99.90;;;;;;5058477;28;20029;-69
2023/01/03 12:02:13;;;;;;;1101.35;996.88;;;9.10;99.90;;;;;;5050338;28;20029;-70
2023/01/03 12:05:16;;;;;;;1104.35;998.40;;;8.70;99.90;;;;;;5006835;28;20037;-70
2023/01/03 12:07:58;;;;;;;1153.38;999.90;;;8.60;99.90;;;;;;5061454;28;20028;-70
2023/01/03 12:10:55;;;;;;;1120.75;999.90;;;8.70;99.90;;;;;;5059684;28;20036;-69
2023/01/03 12:13:41;;;;;;;1068.93;981.97;;;8.80;99.90;;;;;;5059056;28;20033;-70
2023/01/03 12:16:33;;;;;;;1086.88;997.75;;;8.60;99.90;;;;;;5059494;28;20023;-68
2023/01/03 12:19:20;;;;;;;1196.28;999.90;;;8.70;99.90;;;;;;5060694;28;20037;-68
2023/01/03 12:21:59;;;;;;;1122.30;999.90;;;8.90;99.90;;;;;;5055777;28;20029;-68
2023/01/03 12:24:46;;;;;;;1225.80;999.90;;;8.70;99.90;;;;;;5060272;28;20025;-68
2023/01/03 12:27:22;;;;;;;1124.22;999.90;;;8.80;99.90;;;;;;5055173;28;20044;-68
2023/01/03 12:30:05;;;;;;;1079.60;988.75;;;8.70;99.90;;;;;;5054072;28;20052;-68
2023/01/03 12:32:33;;;;;;;1151.22;999.90;;;8.50;99.90;;;;;;5056668;28;20042;-68
2023/01/03 12:35:14;;;;;;;1153.50;999.90;;;8.80;99.90;;;;;;5054427;28;20075;-68
2023/01/03 12:37:44;;;;;;;1164.22;999.90;;;8.90;99.90;;;;;;5057864;28;20029;-68
2023/01/03 12:40:38;;;;;;;1445.63;999.90;;;9.10;99.90;;;;;;5055610;28;20068;-68
2023/01/03 12:43:19;;;;;;;1215.97;999.90;;;9.30;99.90;;;;;;5052915;28;20448;-68
2023/01/03 12:45:57;;;;;;;1165.85;999.90;;;9.40;99.90;;;;;;5052710;28;20033;-67
2023/01/03 12:48:41;;;;;;;1189.53;999.90;;;9.20;99.90;;;;;;5053093;28;20032;-68
2023/01/03 12:51:07;;;;;;;1130.93;999.90;;;9.00;99.90;;;;;;5053925;28;20033;-68
2023/01/03 12:54:03;;;;;;;1015.78;937.45;;;9.10;99.90;;;;;;5071760;28;20032;-68
2023/01/03 12:56:41;;;;;;;1174.18;999.90;;;8.90;99.90;;;;;;5061085;28;20029;-68
2023/01/03 12:59:40;;;;;;;1060.20;977.42;;;9.20;99.90;;;;;;5054219;28;20028;-69
2023/01/03 13:02:34;;;;;;;857.90;802.35;;;8.90;99.90;;;;;;5055838;28;20040;-68
2023/01/03 13:05:24;;;;;;;1036.68;957.17;;;8.70;99.90;;;;;;5057741;28;20040;-68
2023/01/03 13:07:56;;;;;;;1089.03;995.40;;;8.80;99.90;;;;;;5057533;28;20128;-68
2023/01/03 13:10:27;;;;;;;1128.80;999.90;;;8.40;99.90;;;;;;5053560;28;20029;-68
2023/01/03 13:12:53;;;;;;;1136.88;999.90;;;8.30;99.90;;;;;;5062638;28;20087;-68
2023/01/03 13:15:30;;;;;;;1128.07;999.90;;;8.30;99.90;;;;;;5055173;28;20056;-68
2023/01/03 13:18:29;;;;;;;1150.40;999.90;;;8.40;99.90;;;;;;5063613;28;20035;-68
2023/01/03 13:20:56;;;;;;;1105.00;999.90;;;8.30;99.90;;;;;;5063221;28;20494;-68
2023/01/03 13:23:21;;;;;;;1096.03;996.90;;;8.30;99.90;;;;;;5063320;28;20115;-68
2023/01/03 13:26:05;;;;;;;1167.15;999.90;;;8.20;99.90;;;;;;5059062;28;20419;-69
2023/01/03 13:28:32;;;;;;;1147.57;999.90;;;8.10;99.90;;;;;;5057036;28;20029;-68
2023/01/03 13:31:34;;;;;;;1164.75;999.90;;;7.90;99.90;;;;;;5062823;28;20039;-69
2023/01/03 13:34:14;;;;;;;1155.90;999.90;;;7.70;99.90;;;;;;5062098;28;20036;-69